sensor_id;sensor_type;location;lat;lon;timestamp;pressure;altitude;pressure_sealevel;temperature;humidity
77207;BME280;66190;50.708;7.906;2023-12-20T00:01:18;96213.97;;;4.29;100.00
77207;BME280;66190;50.708;7.906;2023-12-20T00:03:43;96215.78;;;4.37;100.00
77207;BME280;66190;50.708;7.906;2023-12-20T00:06:09;96208.97;;;4.34;100.00
77207;BME280;66190;50.708;7.906;2023-12-20T00:08:35;96197.66;;;4.40;100.00
77207;BME280;66190;50.708;7.906;2023-12-20T00:11:00;96193.97;;;4.41;100.00
77207;BME280;66190;50.708;7.906;2023-12-20T00:13:26;96204.78;;;4.40;100.00
77207;BME280;66190;50.708;7.906;2023-12-20T00:15:51;96208.47;;;4.39;100.00
77207;BME280;66190;50.708;7.906;2023-12-20T00:18:16;96199.47;;;4.40;100.00
77207;BME280;66190;50.708;7.906;2023-12-20T00:20:42;96194.44;;;4.45;100.00
77207;BME280;66190;50.708;7.906;2023-12-20T00:23:07;96194.31;;;4.46;100.00
77207;BME280;66190;50.708;7.906;2023-12-20T00:25:34;96191.78;;;4.45;100.00
77207;BME280;66190;50.708;7.906;2023-12-20T00:28:00;96195.78;;;4.49;100.00
77207;BME280;66190;50.708;7.906;2023-12-20T00:30:25;96185.78;;;4.51;100.00
77207;BME280;66190;50.708;7.906;2023-12-20T00:32:51;96190.81;;;4.46;100.00
77207;BME280;66190;50.708;7.906;2023-12-20T00:35:16;96189.47;;;4.50;100.00
77207;BME280;66190;50.708;7.906;2023-12-20T00:37:43;96183.13;;;4.51;100.00
77207;BME280;66190;50.708;7.906;2023-12-20T00:40:08;96182.09;;;4.52;100.00
77207;BME280;66190;50.708;7.906;2023-12-20T00:42:34;96186.09;;;4.56;100.00
77207;BME280;66190;50.708;7.906;2023-12-20T00:45:01;96191.25;;;4.57;100.00
77207;BME280;66190;50.708;7.906;2023-12-20T00:47:27;96185.94;;;4.57;100.00
77207;BME280;66190;50.708;7.906;2023-12-20T00:49:53;96185.94;;;4.57;100.00
77207;BME280;66190;50.708;7.906;2023-12-20T00:52:18;96183.91;;;4.59;100.00
77207;BME280;66190;50.708;7.906;2023-12-20T00:54:44;96180.09;;;4.62;100.00
77207;BME280;66190;50.708;7.906;2023-12-20T00:57:10;96195.06;;;4.63;100.00
77207;BME280;66190;50.708;7.906;2023-12-20T00:59:35;96182.91;;;4.60;100.00
77207;BME280;66190;50.708;7.906;2023-12-20T01:02:01;96180.09;;;4.62;100.00
77207;BME280;66190;50.708;7.906;2023-12-20T01:04:27;96170.91;;;4.64;100.00
77207;BME280;66190;50.708;7.906;2023-12-20T01:06:52;96174.53;;;4.72;100.00
77207;BME280;66190;50.708;7.906;2023-12-20T01:09:18;96179.56;;;4.67;100.00
77207;BME280;66190;50.708;7.906;2023-12-20T01:11:44;96189.38;;;4.74;100.00
77207;BME280;66190;50.708;7.906;2023-12-20T01:14:09;96187.22;;;4.70;100.00
77207;BME280;66190;50.708;7.906;2023-12-20T01:16:35;96172.38;;;4.75;100.00
77207;BME280;66190;50.708;7.906;2023-12-20T01:19:00;96175.22;;;4.74;100.00
77207;BME280;66190;50.708;7.906;2023-12-20T01:21:26;96178.00;;;4.80;100.00
77207;BME280;66190;50.708;7.906;2023-12-20T01:23:51;96177.34;;;4.78;100.00
77207;BME280;66190;50.708;7.906;2023-12-20T01:26:16;96175.50;;;4.79;100.00
77207;BME280;66190;50.708;7.906;2023-12-20T01:28:42;96166.34;;;4.81;100.00
77207;BME280;66190;50.708;7.906;2023-12-20T01:31:08;96169.66;;;4.83;100.00
77207;BME280;66190;50.708;7.906;2023-12-20T01:33:34;96175.81;;;4.84;100.00
77207;BME280;66190;50.708;7.906;2023-12-20T01:35:59;96174.16;;;4.83;100.00
77207;BME280;66190;50.708;7.906;2023-12-20T01:38:25;96169.66;;;4.83;100.00
77207;BME280;66190;50.708;7.906;2023-12-20T01:40:50;96170.84;;;4.81;100.00
77207;BME280;66190;50.708;7.906;2023-12-20T01:43:16;96164.97;;;4.85;100.00
77207;BME280;66190;50.708;7.906;2023-12-20T01:45:41;96164.97;;;4.85;100.00
77207;BME280;66190;50.708;7.906;2023-12-20T01:48:08;96161.03;;;4.81;100.00
77207;BME280;66190;50.708;7.906;2023-12-20T01:50:36;96169.16;;;4.88;100.00
77207;BME280;66190;50.708;7.906;2023-12-20T01:53:02;96173.28;;;4.90;100.00
77207;BME280;66190;50.708;7.906;2023-12-20T01:55:31;96178.75;;;4.97;100.00
77207;BME280;66190;50.708;7.906;2023-12-20T01:57:59;96183.09;;;4.98;100.00
77207;BME280;66190;50.708;7.906;2023-12-20T02:00:26;96197.44;;;4.97;100.00
77207;BME280;66190;50.708;7.906;2023-12-20T02:02:53;96191.56;;;5.01;100.00
77207;BME280;66190;50.708;7.906;2023-12-20T02:05:21;96197.91;;;5.00;100.00
77207;BME280;66190;50.708;7.906;2023-12-20T02:07:46;96201.34;;;5.09;100.00
77207;BME280;66190;50.708;7.906;2023-12-20T02:10:12;96205.75;;;4.94;100.00
77207;BME280;66190;50.708;7.906;2023-12-20T02:12:38;96219.81;;;4.80;100.00
77207;BME280;66190;50.708;7.906;2023-12-20T02:15:04;96222.31;;;4.81;100.00
77207;BME280;66190;50.708;7.906;2023-12-20T02:17:29;96213.66;;;4.79;100.00
77207;BME280;66190;50.708;7.906;2023-12-20T02:19:56;96215.31;;;4.80;100.00
77207;BME280;66190;50.708;7.906;2023-12-20T02:22:22;96220.94;;;4.85;100.00
77207;BME280;66190;50.708;7.906;2023-12-20T02:24:47;96215.78;;;4.84;100.00
77207;BME280;66190;50.708;7.906;2023-12-20T02:27:12;96211.78;;;4.88;100.00
77207;BME280;66190;50.708;7.906;2023-12-20T02:29:38;96217.00;;;4.81;100.00
77207;BME280;66190;50.708;7.906;2023-12-20T02:32:03;96214.81;;;4.85;100.00
77207;BME280;66190;50.708;7.906;2023-12-20T02:34:29;96209.97;;;4.80;100.00
77207;BME280;66190;50.708;7.906;2023-12-20T02:36:54;96222.31;;;4.81;100.00
77207;BME280;66190;50.708;7.906;2023-12-20T02:39:21;96236.94;;;4.85;100.00
77207;BME280;66190;50.708;7.906;2023-12-20T02:41:48;96228.63;;;4.80;100.00
77207;BME280;66190;50.708;7.906;2023-12-20T02:44:13;96213.50;;;4.81;100.00
77207;BME280;66190;50.708;7.906;2023-12-20T02:46:39;96217.81;;;4.82;100.00
77207;BME280;66190;50.708;7.906;2023-12-20T02:49:05;96209.63;;;4.83;100.00
77207;BME280;66190;50.708;7.906;2023-12-20T02:51:31;96226.63;;;4.82;100.00
77207;BME280;66190;50.708;7.906;2023-12-20T02:53:56;96215.66;;;4.77;100.00
77207;BME280;66190;50.708;7.906;2023-12-20T02:56:21;96208.34;;;4.79;100.00
77207;BME280;66190;50.708;7.906;2023-12-20T02:58:47;96214.16;;;4.83;100.00
77207;BME280;66190;50.708;7.906;2023-12-20T03:01:12;96211.97;;;4.78;100.00
77207;BME280;66190;50.708;7.906;2023-12-20T03:03:37;96221.66;;;4.79;100.00
77207;BME280;66190;50.708;7.906;2023-12-20T03:06:03;96230.13;;;4.83;100.00
77207;BME280;66190;50.708;7.906;2023-12-20T03:08:28;96237.28;;;4.82;100.00
77207;BME280;66190;50.708;7.906;2023-12-20T03:10:54;96231.78;;;4.84;100.00
77207;BME280;66190;50.708;7.906;2023-12-20T03:13:19;96225.00;;;4.81;100.00
77207;BME280;66190;50.708;7.906;2023-12-20T03:15:45;96229.84;;;4.78;100.00
77207;BME280;66190;50.708;7.906;2023-12-20T03:18:11;96230.81;;;4.85;100.00
77207;BME280;66190;50.708;7.906;2023-12-20T03:20:36;96232.97;;;4.81;100.00
77207;BME280;66190;50.708;7.906;2023-12-20T03:23:02;96237.78;;;4.86;100.00
77207;BME280;66190;50.708;7.906;2023-12-20T03:25:28;96235.66;;;4.81;100.00
77207;BME280;66190;50.708;7.906;2023-12-20T03:27:53;96231.13;;;4.82;100.00
77207;BME280;66190;50.708;7.906;2023-12-20T03:30:19;96241.78;;;4.82;100.00
77207;BME280;66190;50.708;7.906;2023-12-20T03:32:45;96237.66;;;4.71;100.00
77207;BME280;66190;50.708;7.906;2023-12-20T03:35:10;96236.38;;;4.67;100.00
77207;BME280;66190;50.708;7.906;2023-12-20T03:37:36;96243.16;;;4.70;100.00
77207;BME280;66190;50.708;7.906;2023-12-20T03:40:02;96235.22;;;4.61;100.00
77207;BME280;66190;50.708;7.906;2023-12-20T03:42:28;96238.38;;;4.57;100.00
77207;BME280;66190;50.708;7.906;2023-12-20T03:44:53;96245.06;;;4.53;100.00
77207;BME280;66190;50.708;7.906;2023-12-20T03:47:19;96233.91;;;4.41;100.00
77207;BME280;66190;50.708;7.906;2023-12-20T03:49:44;96243.41;;;4.44;100.00
77207;BME280;66190;50.708;7.906;2023-12-20T03:52:10;96245.41;;;4.42;100.00
77207;BME280;66190;50.708;7.906;2023-12-20T03:54:35;96246.59;;;4.39;100.00
77207;BME280;66190;50.708;7.906;2023-12-20T03:57:01;96248.59;;;4.37;100.00
77207;BME280;66190;50.708;7.906;2023-12-20T03:59:26;96246.63;;;4.23;100.00
77207;BME280;66190;50.708;7.906;2023-12-20T04:01:52;96247.28;;;4.25;100.00
77207;BME280;66190;50.708;7.906;2023-12-20T04:04:17;96252.13;;;4.22;100.00
77207;BME280;66190;50.708;7.906;2023-12-20T04:06:43;96245.78;;;4.23;100.00
77207;BME280;66190;50.708;7.906;2023-12-20T04:09:08;96248.97;;;4.18;100.00
77207;BME280;66190;50.708;7.906;2023-12-20T04:11:34;96243.63;;;4.18;100.00
77207;BME280;66190;50.708;7.906;2023-12-20T04:14:00;96246.13;;;4.20;100.00
77207;BME280;66190;50.708;7.906;2023-12-20T04:16:26;96247.09;;;4.19;100.00
77207;BME280;66190;50.708;7.906;2023-12-20T04:18:51;96247.78;;;4.21;100.00
77207;BME280;66190;50.708;7.906;2023-12-20T04:21:17;96247.63;;;4.14;100.00
77207;BME280;66190;50.708;7.906;2023-12-20T04:23:43;96261.94;;;4.13;100.00
77207;BME280;66190;50.708;7.906;2023-12-20T04:26:09;96261.25;;;4.19;100.00
77207;BME280;66190;50.708;7.906;2023-12-20T04:28:34;96251.94;;;4.15;100.00
77207;BME280;66190;50.708;7.906;2023-12-20T04:31:00;96254.78;;;4.06;100.00
77207;BME280;66190;50.708;7.906;2023-12-20T04:33:25;96258.28;;;4.06;100.00
77207;BME280;66190;50.708;7.906;2023-12-20T04:35:51;96259.13;;;4.15;100.00
77207;BME280;66190;50.708;7.906;2023-12-20T04:38:16;96259.44;;;4.12;100.00
77207;BME280;66190;50.708;7.906;2023-12-20T04:40:42;96253.78;;;4.07;100.00
77207;BME280;66190;50.708;7.906;2023-12-20T04:43:07;96251.63;;;4.10;100.00
77207;BME280;66190;50.708;7.906;2023-12-20T04:45:34;96251.81;;;4.01;100.00
77207;BME280;66190;50.708;7.906;2023-12-20T04:48:00;96256.44;;;4.07;100.00
77207;BME280;66190;50.708;7.906;2023-12-20T04:50:26;96272.94;;;4.02;100.00
77207;BME280;66190;50.708;7.906;2023-12-20T04:52:51;96268.25;;;3.96;100.00
77207;BME280;66190;50.708;7.906;2023-12-20T04:55:17;96269.09;;;4.05;100.00
77207;BME280;66190;50.708;7.906;2023-12-20T04:57:42;96268.63;;;4.01;100.00
77207;BME280;66190;50.708;7.906;2023-12-20T05:00:08;96267.63;;;3.94;100.00
77207;BME280;66190;50.708;7.906;2023-12-20T05:02:35;96267.25;;;4.05;100.00
77207;BME280;66190;50.708;7.906;2023-12-20T05:05:01;96274.25;;;3.98;100.00
77207;BME280;66190;50.708;7.906;2023-12-20T05:07:26;96280.25;;;4.00;100.00
77207;BME280;66190;50.708;7.906;2023-12-20T05:09:51;96270.09;;;4.04;100.00
77207;BME280;66190;50.708;7.906;2023-12-20T05:12:17;96265.59;;;3.96;100.00
77207;BME280;66190;50.708;7.906;2023-12-20T05:14:42;96271.75;;;3.97;100.00
77207;BME280;66190;50.708;7.906;2023-12-20T05:17:08;96256.47;;;3.91;100.00
77207;BME280;66190;50.708;7.906;2023-12-20T05:19:33;96262.13;;;3.96;100.00
77207;BME280;66190;50.708;7.906;2023-12-20T05:22:02;96259.28;;;3.97;100.00
77207;BME280;66190;50.708;7.906;2023-12-20T05:24:28;96262.13;;;3.96;100.00
77207;BME280;66190;50.708;7.906;2023-12-20T05:26:53;96270.78;;;3.98;100.00
77207;BME280;66190;50.708;7.906;2023-12-20T05:29:19;96255.63;;;3.98;100.00
77207;BME280;66190;50.708;7.906;2023-12-20T05:31:44;96254.47;;;4.01;100.00
77207;BME280;66190;50.708;7.906;2023-12-20T05:34:10;96256.13;;;4.02;100.00
77207;BME280;66190;50.708;7.906;2023-12-20T05:36:36;96255.63;;;3.98;100.00
77207;BME280;66190;50.708;7.906;2023-12-20T05:39:01;96264.28;;;4.00;100.00
77207;BME280;66190;50.708;7.906;2023-12-20T05:41:28;96259.28;;;3.97;100.00
77207;BME280;66190;50.708;7.906;2023-12-20T05:43:54;96261.28;;;3.95;100.00
77207;BME280;66190;50.708;7.906;2023-12-20T05:46:19;96259.44;;;4.04;100.00
77207;BME280;66190;50.708;7.906;2023-12-20T05:48:46;96244.66;;;4.01;100.00
77207;BME280;66190;50.708;7.906;2023-12-20T05:51:12;96263.59;;;3.98;100.00
77207;BME280;66190;50.708;7.906;2023-12-20T05:53:38;96268.13;;;3.98;100.00
77207;BME280;66190;50.708;7.906;2023-12-20T05:56:04;96280.75;;;3.96;100.00
77207;BME280;66190;50.708;7.906;2023-12-20T05:58:29;96270.44;;;4.01;100.00
77207;BME280;66190;50.708;7.906;2023-12-20T06:00:54;96273.25;;;4.07;100.00
77207;BME280;66190;50.708;7.906;2023-12-20T06:03:20;96273.59;;;4.04;100.00
77207;BME280;66190;50.708;7.906;2023-12-20T06:05:45;96280.06;;;4.02;100.00
77207;BME280;66190;50.708;7.906;2023-12-20T06:08:11;96282.88;;;4.08;100.00
77207;BME280;66190;50.708;7.906;2023-12-20T06:10:36;96279.91;;;3.95;100.00
77207;BME280;66190;50.708;7.906;2023-12-20T06:13:02;96273.91;;;3.93;100.00
77207;BME280;66190;50.708;7.906;2023-12-20T06:15:29;96278.41;;;4.01;100.00
77207;BME280;66190;50.708;7.906;2023-12-20T06:17:54;96272.09;;;4.02;100.00
77207;BME280;66190;50.708;7.906;2023-12-20T06:20:20;96277.91;;;3.97;100.00
77207;BME280;66190;50.708;7.906;2023-12-20T06:22:45;96280.41;;;3.99;100.00
77207;BME280;66190;50.708;7.906;2023-12-20T06:25:11;96286.06;;;3.96;100.00
77207;BME280;66190;50.708;7.906;2023-12-20T06:27:36;96297.72;;;4.03;100.00
77207;BME280;66190;50.708;7.906;2023-12-20T06:30:02;96294.38;;;4.01;100.00
77207;BME280;66190;50.708;7.906;2023-12-20T06:32:27;96291.56;;;3.94;100.00
77207;BME280;66190;50.708;7.906;2023-12-20T06:34:54;96289.06;;;4.01;100.00
77207;BME280;66190;50.708;7.906;2023-12-20T06:37:19;96291.91;;;3.99;100.00
77207;BME280;66190;50.708;7.906;2023-12-20T06:39:45;96294.06;;;3.96;100.00
77207;BME280;66190;50.708;7.906;2023-12-20T06:42:12;96287.91;;;3.95;100.00
77207;BME280;66190;50.708;7.906;2023-12-20T06:44:38;96288.56;;;3.97;100.00
77207;BME280;66190;50.708;7.906;2023-12-20T06:47:04;96289.41;;;4.06;100.00
77207;BME280;66190;50.708;7.906;2023-12-20T06:49:29;96286.25;;;3.94;100.00
77207;BME280;66190;50.708;7.906;2023-12-20T06:51:55;96279.75;;;4.05;100.00
77207;BME280;66190;50.708;7.906;2023-12-20T06:54:20;96287.06;;;4.03;100.00
77207;BME280;66190;50.708;7.906;2023-12-20T06:56:46;96288.22;;;4.00;100.00
77207;BME280;66190;50.708;7.906;2023-12-20T06:59:13;96282.22;;;3.98;100.00
77207;BME280;66190;50.708;7.906;2023-12-20T07:01:38;96281.75;;;4.03;100.00
77207;BME280;66190;50.708;7.906;2023-12-20T07:04:04;96281.75;;;4.03;100.00
77207;BME280;66190;50.708;7.906;2023-12-20T07:06:29;96281.09;;;4.01;100.00
77207;BME280;66190;50.708;7.906;2023-12-20T07:08:54;96290.38;;;3.97;100.00
77207;BME280;66190;50.708;7.906;2023-12-20T07:11:20;96282.22;;;3.98;100.00
77207;BME280;66190;50.708;7.906;2023-12-20T07:13:45;96284.38;;;3.95;100.00
77207;BME280;66190;50.708;7.906;2023-12-20T07:16:11;96293.06;;;4.05;100.00
77207;BME280;66190;50.708;7.906;2023-12-20T07:18:36;96288.06;;;4.10;100.00
77207;BME280;66190;50.708;7.906;2023-12-20T07:21:02;96283.75;;;4.01;100.00
77207;BME280;66190;50.708;7.906;2023-12-20T07:23:27;96283.75;;;4.01;100.00
77207;BME280;66190;50.708;7.906;2023-12-20T07:25:53;96284.72;;;4.00;100.00
77207;BME280;66190;50.708;7.906;2023-12-20T07:28:18;96291.88;;;4.07;100.00
77207;BME280;66190;50.708;7.906;2023-12-20T07:30:44;96293.53;;;4.00;100.00
77207;BME280;66190;50.708;7.906;2023-12-20T07:33:09;96289.88;;;3.93;100.00
77207;BME280;66190;50.708;7.906;2023-12-20T07:35:35;96289.22;;;3.91;100.00
77207;BME280;66190;50.708;7.906;2023-12-20T07:38:00;96279.75;;;4.05;100.00
77207;BME280;66190;50.708;7.906;2023-12-20T07:40:27;96281.56;;;3.96;100.00
77207;BME280;66190;50.708;7.906;2023-12-20T07:42:52;96290.38;;;3.97;100.00
77207;BME280;66190;50.708;7.906;2023-12-20T07:45:18;96297.38;;;3.98;100.00
77207;BME280;66190;50.708;7.906;2023-12-20T07:47:43;96296.72;;;3.96;100.00
77207;BME280;66190;50.708;7.906;2023-12-20T07:50:09;96307.88;;;3.99;100.00
77207;BME280;66190;50.708;7.906;2023-12-20T07:52:35;96299.38;;;3.96;100.00
77207;BME280;66190;50.708;7.906;2023-12-20T07:55:00;96291.91;;;3.99;100.00
77207;BME280;66190;50.708;7.906;2023-12-20T07:57:29;96307.38;;;3.96;100.00
77207;BME280;66190;50.708;7.906;2023-12-20T07:59:55;96299.06;;;3.91;100.00
77207;BME280;66190;50.708;7.906;2023-12-20T08:02:20;96307.66;;;3.93;100.00
77207;BME280;66190;50.708;7.906;2023-12-20T08:04:46;96306.50;;;4.03;100.00
77207;BME280;66190;50.708;7.906;2023-12-20T08:07:11;96310.03;;;4.04;100.00
77207;BME280;66190;50.708;7.906;2023-12-20T08:09:36;96310.50;;;4.15;100.00
77207;BME280;66190;50.708;7.906;2023-12-20T08:12:02;96319.81;;;4.03;100.00
77207;BME280;66190;50.708;7.906;2023-12-20T08:14:28;96313.84;;;4.01;100.00
77207;BME280;66190;50.708;7.906;2023-12-20T08:16:53;96326.50;;;3.99;100.00
77207;BME280;66190;50.708;7.906;2023-12-20T08:19:19;96324.00;;;4.06;100.00
77207;BME280;66190;50.708;7.906;2023-12-20T08:21:44;96321.16;;;4.15;100.00
77207;BME280;66190;50.708;7.906;2023-12-20T08:24:09;96321.84;;;4.09;100.00
77207;BME280;66190;50.708;7.906;2023-12-20T08:26:35;96322.50;;;4.03;100.00
77207;BME280;66190;50.708;7.906;2023-12-20T08:29:00;96328.50;;;3.97;100.00
77207;BME280;66190;50.708;7.906;2023-12-20T08:31:26;96333.97;;;4.04;100.00
77207;BME280;66190;50.708;7.906;2023-12-20T08:33:52;96329.84;;;4.01;100.00
77207;BME280;66190;50.708;7.906;2023-12-20T08:36:19;96321.69;;;4.03;100.00
77207;BME280;66190;50.708;7.906;2023-12-20T08:38:46;96323.31;;;4.04;100.00
77207;BME280;66190;50.708;7.906;2023-12-20T08:41:12;96330.97;;;4.07;100.00
77207;BME280;66190;50.708;7.906;2023-12-20T08:43:37;96329.84;;;4.01;100.00
77207;BME280;66190;50.708;7.906;2023-12-20T08:46:05;96320.16;;;4.08;100.00
77207;BME280;66190;50.708;7.906;2023-12-20T08:48:31;96329.31;;;4.14;100.00
77207;BME280;66190;50.708;7.906;2023-12-20T08:50:56;96323.66;;;4.09;100.00
77207;BME280;66190;50.708;7.906;2023-12-20T08:53:21;96328.00;;;4.10;100.00
77207;BME280;66190;50.708;7.906;2023-12-20T08:55:47;96311.69;;;4.13;100.00
77207;BME280;66190;50.708;7.906;2023-12-20T08:58:13;96321.50;;;4.04;100.00
77207;BME280;66190;50.708;7.906;2023-12-20T09:00:39;96326.66;;;3.98;100.00
77207;BME280;66190;50.708;7.906;2023-12-20T09:03:05;96314.34;;;3.97;100.00
77207;BME280;66190;50.708;7.906;2023-12-20T09:05:30;96318.81;;;3.96;100.00
77207;BME280;66190;50.708;7.906;2023-12-20T09:07:56;96315.00;;;3.99;100.00
77207;BME280;66190;50.708;7.906;2023-12-20T09:10:21;96307.19;;;3.97;100.00
77207;BME280;66190;50.708;7.906;2023-12-20T09:12:51;96305.38;;;3.98;100.00
77207;BME280;66190;50.708;7.906;2023-12-20T09:15:17;96308.69;;;4.00;100.00
77207;BME280;66190;50.708;7.906;2023-12-20T09:17:42;96315.34;;;4.04;100.00
77207;BME280;66190;50.708;7.906;2023-12-20T09:20:09;96310.34;;;4.01;100.00
77207;BME280;66190;50.708;7.906;2023-12-20T09:22:35;96310.19;;;4.02;100.00
77207;BME280;66190;50.708;7.906;2023-12-20T09:25:00;96313.19;;;4.07;100.00
77207;BME280;66190;50.708;7.906;2023-12-20T09:27:27;96309.50;;;4.08;100.00
77207;BME280;66190;50.708;7.906;2023-12-20T09:29:53;96316.50;;;4.09;100.00
77207;BME280;66190;50.708;7.906;2023-12-20T09:32:19;96320.00;;;4.10;100.00
77207;BME280;66190;50.708;7.906;2023-12-20T09:34:46;96320.34;;;3.99;100.00
77207;BME280;66190;50.708;7.906;2023-12-20T09:37:13;96318.34;;;4.09;100.00
77207;BME280;66190;50.708;7.906;2023-12-20T09:39:38;96319.69;;;4.05;100.00
77207;BME280;66190;50.708;7.906;2023-12-20T09:42:04;96321.66;;;4.19;100.00
77207;BME280;66190;50.708;7.906;2023-12-20T09:44:30;96311.03;;;4.11;100.00
77207;BME280;66190;50.708;7.906;2023-12-20T09:46:57;96324.16;;;4.04;100.00
77207;BME280;66190;50.708;7.906;2023-12-20T09:49:22;96323.31;;;4.12;100.00
77207;BME280;66190;50.708;7.906;2023-12-20T09:51:50;96328.34;;;4.15;100.00
77207;BME280;66190;50.708;7.906;2023-12-20T09:54:19;96325.66;;;4.07;100.00
77207;BME280;66190;50.708;7.906;2023-12-20T09:56:45;96311.03;;;4.11;100.00
77207;BME280;66190;50.708;7.906;2023-12-20T09:59:10;96315.84;;;4.15;100.00
77207;BME280;66190;50.708;7.906;2023-12-20T10:01:38;96316.34;;;4.19;100.00
77207;BME280;66190;50.708;7.906;2023-12-20T10:04:06;96311.53;;;4.14;100.00
77207;BME280;66190;50.708;7.906;2023-12-20T10:06:36;96309.34;;;4.18;100.00
77207;BME280;66190;50.708;7.906;2023-12-20T10:09:01;96306.03;;;4.16;100.00
77207;BME280;66190;50.708;7.906;2023-12-20T10:11:27;96308.19;;;4.12;100.00
77207;BME280;66190;50.708;7.906;2023-12-20T10:13:59;96300.19;;;4.12;100.00
77207;BME280;66190;50.708;7.906;2023-12-20T10:16:26;96300.03;;;4.14;100.00
77207;BME280;66190;50.708;7.906;2023-12-20T10:18:53;96296.19;;;4.24;100.00
77207;BME280;66190;50.708;7.906;2023-12-20T10:21:19;96299.34;;;4.12;100.00
77207;BME280;66190;50.708;7.906;2023-12-20T10:23:45;96294.38;;;4.09;100.00
77207;BME280;66190;50.708;7.906;2023-12-20T10:26:19;96299.72;;;4.17;100.00
77207;BME280;66190;50.708;7.906;2023-12-20T10:28:45;96294.06;;;4.20;100.00
77207;BME280;66190;50.708;7.906;2023-12-20T10:31:10;96291.56;;;4.18;100.00
77207;BME280;66190;50.708;7.906;2023-12-20T10:33:36;96296.03;;;4.18;100.00
77207;BME280;66190;50.708;7.906;2023-12-20T10:36:02;96291.22;;;4.13;100.00
77207;BME280;66190;50.708;7.906;2023-12-20T10:38:28;96286.41;;;4.17;100.00
77207;BME280;66190;50.708;7.906;2023-12-20T10:40:57;96287.03;;;4.19;100.00
77207;BME280;66190;50.708;7.906;2023-12-20T10:43:28;96286.91;;;4.20;100.00
77207;BME280;66190;50.708;7.906;2023-12-20T10:45:54;96288.72;;;4.20;100.00
77207;BME280;66190;50.708;7.906;2023-12-20T10:48:19;96284.06;;;4.14;100.00
77207;BME280;66190;50.708;7.906;2023-12-20T10:50:46;96285.06;;;4.21;100.00
77207;BME280;66190;50.708;7.906;2023-12-20T10:53:12;96290.19;;;4.22;100.00
77207;BME280;66190;50.708;7.906;2023-12-20T10:55:38;96281.22;;;4.23;100.00
77207;BME280;66190;50.708;7.906;2023-12-20T10:58:07;96280.06;;;4.18;100.00
77207;BME280;66190;50.708;7.906;2023-12-20T11:00:39;96284.25;;;4.20;100.00
77207;BME280;66190;50.708;7.906;2023-12-20T11:03:09;96283.06;;;4.23;100.00
77207;BME280;66190;50.708;7.906;2023-12-20T11:05:45;96281.59;;;4.20;100.00
77207;BME280;66190;50.708;7.906;2023-12-20T11:08:32;96269.25;;;4.27;100.00
77207;BME280;66190;50.708;7.906;2023-12-20T11:11:12;96280.38;;;4.31;100.00
77207;BME280;66190;50.708;7.906;2023-12-20T11:14:04;96280.22;;;4.24;100.00
77207;BME280;66190;50.708;7.906;2023-12-20T11:16:33;96273.75;;;4.27;100.00
77207;BME280;66190;50.708;7.906;2023-12-20T11:19:04;96266.72;;;4.26;100.00
77207;BME280;66190;50.708;7.906;2023-12-20T11:21:30;96265.44;;;4.22;100.00
77207;BME280;66190;50.708;7.906;2023-12-20T11:23:56;96268.25;;;4.28;100.00
77207;BME280;66190;50.708;7.906;2023-12-20T11:26:28;96270.06;;;4.28;100.00
77207;BME280;66190;50.708;7.906;2023-12-20T11:28:54;96262.25;;;4.26;100.00
77207;BME280;66190;50.708;7.906;2023-12-20T11:31:20;96268.91;;;4.30;100.00
77207;BME280;66190;50.708;7.906;2023-12-20T11:33:45;96278.91;;;4.20;100.00
77207;BME280;66190;50.708;7.906;2023-12-20T11:36:15;96256.09;;;4.26;100.00
77207;BME280;66190;50.708;7.906;2023-12-20T11:39:09;96257.91;;;4.33;100.00
77207;BME280;66190;50.708;7.906;2023-12-20T11:41:36;96255.78;;;4.29;100.00
77207;BME280;66190;50.708;7.906;2023-12-20T11:44:04;96260.25;;;4.28;100.00
77207;BME280;66190;50.708;7.906;2023-12-20T11:46:31;96261.41;;;4.34;100.00
77207;BME280;66190;50.708;7.906;2023-12-20T11:48:56;96254.75;;;4.30;100.00
77207;BME280;66190;50.708;7.906;2023-12-20T11:51:22;96260.56;;;4.41;100.00
77207;BME280;66190;50.708;7.906;2023-12-20T11:53:51;96273.22;;;4.47;100.00
77207;BME280;66190;50.708;7.906;2023-12-20T11:56:17;96251.22;;;4.45;100.00
77207;BME280;66190;50.708;7.906;2023-12-20T11:58:43;96253.75;;;4.39;100.00
77207;BME280;66190;50.708;7.906;2023-12-20T12:01:08;96261.22;;;4.43;100.00
77207;BME280;66190;50.708;7.906;2023-12-20T12:03:34;96246.91;;;4.36;100.00
77207;BME280;66190;50.708;7.906;2023-12-20T12:05:59;96252.41;;;4.43;100.00
77207;BME280;66190;50.708;7.906;2023-12-20T12:08:26;96259.75;;;4.41;100.00
77207;BME280;66190;50.708;7.906;2023-12-20T12:10:51;96241.75;;;4.43;100.00
77207;BME280;66190;50.708;7.906;2023-12-20T12:13:17;96245.22;;;4.43;100.00
77207;BME280;66190;50.708;7.906;2023-12-20T12:15:42;96228.59;;;4.49;100.00
77207;BME280;66190;50.708;7.906;2023-12-20T12:18:08;96233.91;;;4.49;100.00
77207;BME280;66190;50.708;7.906;2023-12-20T12:20:34;96219.75;;;4.49;100.00
77207;BME280;66190;50.708;7.906;2023-12-20T12:23:05;96228.28;;;4.44;100.00
77207;BME280;66190;50.708;7.906;2023-12-20T12:25:34;96239.72;;;4.53;100.00
77207;BME280;66190;50.708;7.906;2023-12-20T12:28:00;96237.88;;;4.53;100.00
77207;BME280;66190;50.708;7.906;2023-12-20T12:30:26;96223.03;;;4.59;100.00
77207;BME280;66190;50.708;7.906;2023-12-20T12:32:52;96224.06;;;4.58;100.00
77207;BME280;66190;50.708;7.906;2023-12-20T12:35:18;96234.56;;;4.51;100.00
77207;BME280;66190;50.708;7.906;2023-12-20T12:37:44;96223.22;;;4.57;100.00
77207;BME280;66190;50.708;7.906;2023-12-20T12:40:11;96216.72;;;4.60;100.00
77207;BME280;66190;50.708;7.906;2023-12-20T12:42:37;96215.22;;;4.57;100.00
77207;BME280;66190;50.708;7.906;2023-12-20T12:45:03;96213.75;;;4.55;100.00
77207;BME280;66190;50.708;7.906;2023-12-20T12:47:29;96217.06;;;4.57;100.00
77207;BME280;66190;50.708;7.906;2023-12-20T12:49:56;96207.72;;;4.61;100.00
77207;BME280;66190;50.708;7.906;2023-12-20T12:52:21;96199.91;;;4.59;100.00
77207;BME280;66190;50.708;7.906;2023-12-20T12:54:46;96207.72;;;4.61;100.00